Time;durP1;ratioP1;P1;durP2;ratioP2;P2;SDS_P1;SDS_P2;PMS_P1;PMS_P2;Temp;Humidity;BMP_temperature;BMP_pressure;BME280_temperature;BME280_humidity;BME280_pressure;Samples;Min_cycle;Max_cycle;Signal;HPM_P1;HPM_P2
2024/03/30 00:00:04;;;;;;;42.67;4.97;;;19.10;40.30;;;;;;5054619;28;20097;-61
2024/03/30 00:02:29;;;;;;;30.10;5.25;;;19.00;40.20;;;;;;5049505;28;20037;-62
2024/03/30 00:04:56;;;;;;;36.88;4.45;;;19.10;40.40;;;;;;5054215;28;20033;-62
2024/03/30 00:07:21;;;;;;;32.45;4.30;;;19.10;40.30;;;;;;5044056;28;20040;-61
2024/03/30 00:09:48;;;;;;;37.08;4.43;;;19.10;40.20;;;;;;5049727;28;20052;-62
2024/03/30 00:12:13;;;;;;;29.80;4.07;;;19.10;40.00;;;;;;5040042;28;20033;-62
2024/03/30 00:14:39;;;;;;;26.65;3.72;;;19.10;40.00;;;;;;5042077;28;20037;-62
2024/03/30 00:17:04;;;;;;;31.50;4.15;;;19.10;40.00;;;;;;5041754;28;20037;-60
2024/03/30 00:19:30;;;;;;;26.85;4.45;;;19.10;39.30;;;;;;5041837;28;20508;-60
2024/03/30 00:21:58;;;;;;;25.45;3.60;;;19.10;39.70;;;;;;5040069;28;20029;-62
2024/03/30 00:24:23;;;;;;;29.80;3.53;;;19.10;39.60;;;;;;5046243;28;20979;-61
2024/03/30 00:26:49;;;;;;;25.23;3.53;;;19.20;39.70;;;;;;5040750;28;20075;-62
2024/03/30 00:29:14;;;;;;;32.42;3.67;;;19.20;39.90;;;;;;5040601;28;20535;-61
2024/03/30 00:31:40;;;;;;;25.73;3.53;;;19.20;39.90;;;;;;5040713;28;20040;-61
2024/03/30 00:34:06;;;;;;;27.95;4.15;;;19.20;39.30;;;;;;5041823;28;20124;-62
2024/03/30 00:36:31;;;;;;;26.95;3.22;;;19.30;39.30;;;;;;5041188;28;20040;-61
2024/03/30 00:39:00;;;;;;;24.33;3.72;;;19.20;39.50;;;;;;5042656;28;20044;-57
2024/03/30 00:41:25;;;;;;;20.27;3.35;;;19.30;39.00;;;;;;5039927;28;20025;-62
2024/03/30 00:43:51;;;;;;;31.42;3.53;;;19.20;39.20;;;;;;5042383;28;20044;-61
2024/03/30 00:46:17;;;;;;;21.60;2.65;;;19.20;39.00;;;;;;5036198;28;20037;-60
2024/03/30 00:48:42;;;;;;;29.08;3.40;;;19.20;39.40;;;;;;5044768;28;20037;-60
2024/03/30 00:51:08;;;;;;;26.35;3.17;;;19.20;39.20;;;;;;5048758;28;20040;-60
2024/03/30 00:53:35;;;;;;;24.77;3.38;;;19.20;39.00;;;;;;5042444;28;20405;-62
2024/03/30 00:56:00;;;;;;;25.75;3.42;;;19.20;39.30;;;;;;5047638;28;20037;-61
2024/03/30 00:58:28;;;;;;;24.80;3.28;;;19.20;38.70;;;;;;5044096;28;20182;-60
2024/03/30 01:00:53;;;;;;;31.67;2.97;;;19.20;38.60;;;;;;5043048;28;20041;-60
2024/03/30 01:03:19;;;;;;;21.05;3.03;;;19.20;38.70;;;;;;5041578;28;20378;-62
2024/03/30 01:05:45;;;;;;;18.67;3.30;;;19.20;38.70;;;;;;5042300;28;20032;-61
2024/03/30 01:08:11;;;;;;;21.60;3.17;;;19.20;38.50;;;;;;5048015;28;20319;-61
2024/03/30 01:10:36;;;;;;;27.20;3.95;;;19.30;38.60;;;;;;5050191;28;20048;-62
2024/03/30 01:13:02;;;;;;;25.88;3.63;;;19.20;38.40;;;;;;5042980;28;20037;-62
2024/03/30 01:15:28;;;;;;;19.17;3.13;;;19.30;38.40;;;;;;5054001;28;20040;-62
2024/03/30 01:17:54;;;;;;;23.00;2.15;;;19.20;38.00;;;;;;5051523;28;20156;-62
2024/03/30 01:20:20;;;;;;;26.35;3.25;;;19.20;38.40;;;;;;5044785;28;20060;-61
2024/03/30 01:22:46;;;;;;;18.80;2.38;;;19.20;38.70;;;;;;5045428;28;20076;-61
2024/03/30 01:25:12;;;;;;;26.52;3.42;;;19.20;38.40;;;;;;5058389;28;20414;-60
2024/03/30 01:27:39;;;;;;;25.77;2.97;;;19.20;38.60;;;;;;5052612;28;20032;-61
2024/03/30 01:30:11;;;;;;;21.63;2.85;;;19.20;38.60;;;;;;5048636;28;20407;-61
2024/03/30 01:32:37;;;;;;;17.83;2.33;;;19.10;38.80;;;;;;5044969;28;20124;-62
2024/03/30 01:35:04;;;;;;;17.52;2.45;;;19.10;39.00;;;;;;5047181;28;20136;-61
2024/03/30 01:37:29;;;;;;;22.50;2.65;;;19.10;39.00;;;;;;5041847;28;20456;-60
2024/03/30 01:39:59;;;;;;;15.98;2.20;;;19.10;39.10;;;;;;5043562;28;20029;-59
2024/03/30 01:42:31;;;;;;;22.60;2.28;;;19.10;38.60;;;;;;5051028;28;20582;-59
2024/03/30 01:44:57;;;;;;;23.25;2.35;;;19.00;38.60;;;;;;5046957;28;20029;-61
2024/03/30 01:47:24;;;;;;;12.98;2.40;;;19.00;39.00;;;;;;5046065;28;20033;-61
2024/03/30 01:49:50;;;;;;;18.27;2.45;;;19.00;38.90;;;;;;5043303;28;20037;-61
2024/03/30 01:52:19;;;;;;;21.48;2.33;;;19.00;38.90;;;;;;5042320;28;20059;-62
2024/03/30 01:54:45;;;;;;;16.95;2.67;;;19.00;39.00;;;;;;5049206;28;20069;-61
2024/03/30 01:57:13;;;;;;;23.67;2.75;;;18.90;38.90;;;;;;5046798;28;20069;-61
2024/03/30 01:59:40;;;;;;;21.58;2.45;;;18.90;38.90;;;;;;5043095;28;20492;-59
2024/03/30 02:02:08;;;;;;;21.48;2.70;;;18.90;38.80;;;;;;5047745;28;20409;-61
2024/03/30 02:04:34;;;;;;;15.55;2.63;;;18.90;38.90;;;;;;5047290;28;20507;-60
2024/03/30 02:07:00;;;;;;;18.20;2.42;;;18.90;39.20;;;;;;5045649;28;20041;-61
2024/03/30 02:09:26;;;;;;;21.00;2.75;;;18.90;39.10;;;;;;5051745;28;20349;-62
2024/03/30 02:11:52;;;;;;;23.23;2.63;;;18.80;39.00;;;;;;5042252;28;20040;-61
2024/03/30 02:14:18;;;;;;;12.27;2.33;;;18.90;39.20;;;;;;5047129;28;20040;-58
2024/03/30 02:16:43;;;;;;;20.33;2.50;;;18.80;39.10;;;;;;5045668;28;20029;-61
2024/03/30 02:19:09;;;;;;;27.17;3.30;;;18.80;39.00;;;;;;5042505;28;20051;-59
2024/03/30 02:21:35;;;;;;;16.90;3.10;;;18.80;38.80;;;;;;5046974;28;20025;-61
2024/03/30 02:24:01;;;;;;;20.95;2.45;;;18.80;39.00;;;;;;5047595;28;20029;-63
2024/03/30 02:26:26;;;;;;;15.57;2.20;;;18.70;39.10;;;;;;5046250;28;20174;-62
2024/03/30 02:28:53;;;;;;;20.73;2.65;;;18.70;39.30;;;;;;5043357;28;20378;-61
2024/03/30 02:31:19;;;;;;;16.38;2.47;;;18.80;39.10;;;;;;5040732;28;20029;-62
2024/03/30 02:33:45;;;;;;;18.67;2.70;;;18.70;39.20;;;;;;5044584;28;20524;-61
2024/03/30 02:36:12;;;;;;;19.10;2.80;;;18.70;39.10;;;;;;5043466;28;20115;-62
2024/03/30 02:38:37;;;;;;;18.83;2.28;;;18.70;39.10;;;;;;5035998;28;20037;-60
2024/03/30 02:41:03;;;;;;;22.35;2.55;;;18.70;39.50;;;;;;5046071;28;20312;-60
2024/03/30 02:43:30;;;;;;;22.98;3.05;;;18.70;39.50;;;;;;5043074;28;20032;-61
2024/03/30 02:45:55;;;;;;;19.33;3.15;;;18.70;39.30;;;;;;5046815;28;20036;-61
2024/03/30 02:48:21;;;;;;;24.05;3.22;;;18.60;39.40;;;;;;5047662;28;20485;-62
2024/03/30 02:50:46;;;;;;;21.40;3.13;;;18.70;39.40;;;;;;5046368;28;20037;-62
2024/03/30 02:53:12;;;;;;;20.83;2.55;;;18.60;39.40;;;;;;5039072;28;20473;-61
2024/03/30 02:55:37;;;;;;;20.65;2.65;;;18.60;39.50;;;;;;5047134;28;20408;-61
2024/03/30 02:58:03;;;;;;;17.13;2.67;;;18.60;39.50;;;;;;5044197;28;20039;-61
2024/03/30 03:00:29;;;;;;;21.65;2.78;;;18.60;39.70;;;;;;5050129;28;20033;-62
2024/03/30 03:02:55;;;;;;;24.02;2.92;;;18.60;39.60;;;;;;5048508;28;20087;-62
2024/03/30 03:05:21;;;;;;;26.95;2.97;;;18.60;39.60;;;;;;5046889;28;20029;-61
2024/03/30 03:07:46;;;;;;;28.60;2.90;;;18.60;39.80;;;;;;5048254;28;20112;-61
2024/03/30 03:10:12;;;;;;;28.90;3.88;;;18.50;40.50;;;;;;5048202;28;20047;-61
2024/03/30 03:12:37;;;;;;;20.70;3.20;;;18.50;39.80;;;;;;5045095;28;20116;-62
2024/03/30 03:15:04;;;;;;;21.83;3.15;;;18.50;39.90;;;;;;5049755;28;20068;-62
2024/03/30 03:17:35;;;;;;;27.58;3.40;;;18.50;40.00;;;;;;5040297;28;20032;-62
2024/03/30 03:20:05;;;;;;;24.17;3.30;;;18.40;40.00;;;;;;5041949;28;20050;-62
2024/03/30 03:22:31;;;;;;;23.15;3.25;;;18.40;40.00;;;;;;5044324;28;20075;-62
2024/03/30 03:24:57;;;;;;;23.23;3.45;;;18.40;40.30;;;;;;5040382;28;20064;-63
2024/03/30 03:27:22;;;;;;;26.58;3.10;;;18.40;40.30;;;;;;5043949;28;20061;-60
2024/03/30 03:29:48;;;;;;;24.60;3.15;;;18.40;40.40;;;;;;5045975;28;20037;-62
2024/03/30 03:32:13;;;;;;;23.23;3.30;;;18.40;40.50;;;;;;5040271;28;20037;-62
2024/03/30 03:34:39;;;;;;;25.70;3.33;;;18.40;40.60;;;;;;5043474;28;20040;-62
2024/03/30 03:37:05;;;;;;;22.48;2.92;;;18.30;40.70;;;;;;5046022;28;20135;-63
2024/03/30 03:39:31;;;;;;;27.83;3.58;;;18.30;40.60;;;;;;5043929;28;20174;-62
2024/03/30 03:41:56;;;;;;;29.40;2.88;;;18.30;40.80;;;;;;5043456;28;20037;-61
2024/03/30 03:44:22;;;;;;;30.17;3.58;;;18.30;40.80;;;;;;5048674;28;20037;-61
2024/03/30 03:46:47;;;;;;;16.15;2.80;;;18.20;40.80;;;;;;5041788;28;20512;-62
2024/03/30 03:49:13;;;;;;;24.60;3.17;;;18.20;40.80;;;;;;5044795;28;20506;-61
2024/03/30 03:51:39;;;;;;;27.17;3.05;;;18.20;41.00;;;;;;5043014;28;20041;-62
2024/03/30 03:54:04;;;;;;;24.05;3.20;;;18.10;41.00;;;;;;5045408;28;20569;-62
2024/03/30 03:56:30;;;;;;;17.90;3.05;;;18.00;41.10;;;;;;5039045;28;20029;-62
2024/03/30 03:58:55;;;;;;;20.90;2.97;;;18.00;41.40;;;;;;5038645;28;20026;-62
2024/03/30 04:01:21;;;;;;;28.65;2.95;;;18.00;41.70;;;;;;5048807;28;20156;-62
2024/03/30 04:03:46;;;;;;;28.20;3.03;;;17.90;41.80;;;;;;5039207;28;20272;-62
2024/03/30 04:06:12;;;;;;;20.27;3.13;;;17.90;41.80;;;;;;5040988;28;20033;-62
2024/03/30 04:08:39;;;;;;;17.02;2.80;;;17.80;41.90;;;;;;5036336;28;20513;-60
2024/03/30 04:11:06;;;;;;;25.23;3.13;;;17.80;42.10;;;;;;5051651;28;20067;-62
2024/03/30 04:13:34;;;;;;;20.75;3.30;;;17.70;42.20;;;;;;5043456;28;20033;-62
2024/03/30 04:16:02;;;;;;;26.83;3.53;;;17.60;42.10;;;;;;5049517;28;20548;-62
2024/03/30 04:18:28;;;;;;;27.35;2.97;;;17.60;42.30;;;;;;5047264;28;20032;-61
2024/03/30 04:20:57;;;;;;;32.22;2.97;;;17.50;42.40;;;;;;5038676;28;20033;-62
2024/03/30 04:23:23;;;;;;;22.88;3.25;;;17.50;42.20;;;;;;5042950;28;20029;-62
2024/03/30 04:26:06;;;;;;;29.52;3.38;;;17.40;42.30;;;;;;5039703;28;20090;-61
2024/03/30 04:28:32;;;;;;;26.35;3.30;;;17.30;42.10;;;;;;5048261;28;20059;-63
2024/03/30 04:30:59;;;;;;;25.23;3.10;;;17.30;42.40;;;;;;5044533;28;20122;-62
2024/03/30 04:33:25;;;;;;;30.42;3.53;;;17.20;42.40;;;;;;5047740;28;20056;-62
2024/03/30 04:38:29;;;;;;;26.98;3.42;;;17.10;42.60;;;;;;5206589;23;21065;-63
2024/03/30 04:41:01;;;;;;;29.25;4.05;;;17.00;42.60;;;;;;5024512;28;20137;-63
2024/03/30 04:43:28;;;;;;;35.28;4.38;;;17.00;42.70;;;;;;5028212;28;20040;-63
2024/03/30 04:45:54;;;;;;;31.52;3.58;;;17.00;42.80;;;;;;5028298;28;20037;-64
2024/03/30 04:48:20;;;;;;;26.73;3.10;;;17.10;42.90;;;;;;5028330;28;20057;-63
2024/03/30 04:50:46;;;;;;;34.88;3.70;;;17.10;42.90;;;;;;5028045;28;20033;-63
2024/03/30 04:53:17;;;;;;;25.70;3.50;;;17.10;42.90;;;;;;5021084;28;20029;-63
2024/03/30 04:55:57;;;;;;;20.52;3.42;;;17.10;42.80;;;;;;5026412;28;20040;-63
2024/03/30 04:58:25;;;;;;;30.13;3.55;;;17.20;42.70;;;;;;5023885;28;20524;-63
2024/03/30 05:00:52;;;;;;;27.63;3.65;;;17.10;42.90;;;;;;5027528;28;20381;-62
2024/03/30 05:03:18;;;;;;;29.20;3.67;;;17.10;42.90;;;;;;5028690;28;20030;-61
2024/03/30 05:05:46;;;;;;;31.75;4.15;;;17.10;42.90;;;;;;5026215;28;20392;-63
2024/03/30 05:08:13;;;;;;;26.35;3.60;;;17.10;43.00;;;;;;5028781;28;20036;-63
2024/03/30 05:10:39;;;;;;;24.25;3.53;;;17.10;43.20;;;;;;5026443;28;20025;-64
2024/03/30 05:13:05;;;;;;;26.17;3.67;;;17.10;43.40;;;;;;5027443;28;20034;-64
2024/03/30 05:15:38;;;;;;;26.67;3.13;;;17.10;43.80;;;;;;5027382;28;20535;-64
2024/03/30 05:18:05;;;;;;;22.85;3.22;;;17.10;43.90;;;;;;5028452;28;20033;-62
2024/03/30 05:20:49;;;;;;;24.48;3.17;;;17.00;43.70;;;;;;5028907;28;20116;-62
2024/03/30 05:23:18;;;;;;;25.42;3.97;;;16.90;43.70;;;;;;5028190;28;20040;-62
2024/03/30 05:25:45;;;;;;;30.08;3.80;;;16.90;43.80;;;;;;5028908;28;20021;-63
2024/03/30 05:28:11;;;;;;;33.28;3.65;;;16.80;43.70;;;;;;5027589;28;20543;-62
2024/03/30 05:30:38;;;;;;;29.60;3.58;;;16.70;43.80;;;;;;5027065;28;20037;-63
2024/03/30 05:33:04;;;;;;;30.85;3.53;;;16.60;44.40;;;;;;5024801;28;20168;-62
2024/03/30 05:35:30;;;;;;;34.13;3.78;;;16.60;44.50;;;;;;5026871;28;20073;-64
2024/03/30 05:37:55;;;;;;;23.98;3.25;;;16.50;44.60;;;;;;5027311;28;20405;-63
2024/03/30 05:40:21;;;;;;;27.55;3.80;;;16.40;45.10;;;;;;5025875;28;20439;-63
2024/03/30 05:42:46;;;;;;;28.10;3.88;;;16.30;45.40;;;;;;5024948;28;20125;-64
2024/03/30 05:45:12;;;;;;;24.52;3.28;;;16.20;45.60;;;;;;5024985;28;20038;-63
2024/03/30 05:47:38;;;;;;;24.75;2.97;;;16.10;46.00;;;;;;5026863;28;20053;-63
2024/03/30 05:50:03;;;;;;;27.88;3.40;;;15.90;46.30;;;;;;5026208;28;20041;-62
2024/03/30 05:52:29;;;;;;;21.50;3.08;;;15.90;46.80;;;;;;5027229;28;20044;-63
2024/03/30 05:54:55;;;;;;;26.58;3.50;;;15.80;47.10;;;;;;5025360;28;20041;-63
2024/03/30 05:57:20;;;;;;;28.77;3.58;;;15.80;47.30;;;;;;5027215;28;20096;-63
2024/03/30 05:59:46;;;;;;;21.77;3.72;;;15.70;47.70;;;;;;5021830;28;20041;-63
2024/03/30 06:02:11;;;;;;;26.50;3.63;;;15.60;47.60;;;;;;5026253;28;20038;-63
2024/03/30 06:04:37;;;;;;;29.75;3.53;;;15.50;48.10;;;;;;5026313;28;20527;-64
2024/03/30 06:07:08;;;;;;;29.17;3.63;;;15.50;48.50;;;;;;5025417;28;20038;-62
2024/03/30 06:09:36;;;;;;;28.95;4.40;;;15.40;48.50;;;;;;5026496;28;20036;-63
2024/03/30 06:12:03;;;;;;;27.35;4.85;;;15.40;48.50;;;;;;5028015;28;20044;-62
2024/03/30 06:14:30;;;;;;;34.28;5.07;;;15.30;48.40;;;;;;5026808;28;20049;-62
2024/03/30 06:16:56;;;;;;;29.52;3.90;;;15.30;48.60;;;;;;5027148;28;20049;-62
2024/03/30 06:19:21;;;;;;;29.00;3.97;;;15.40;48.70;;;;;;5025450;28;20044;-63
2024/03/30 06:21:47;;;;;;;32.03;3.60;;;15.40;49.00;;;;;;5025191;28;20198;-63
2024/03/30 06:24:13;;;;;;;25.45;3.40;;;15.40;49.00;;;;;;5027511;28;20689;-62
2024/03/30 06:26:38;;;;;;;20.83;3.47;;;15.40;49.30;;;;;;5026276;28;20515;-62
2024/03/30 06:29:04;;;;;;;32.88;4.18;;;15.50;49.60;;;;;;5025786;28;20063;-62
2024/03/30 06:31:29;;;;;;;26.38;3.83;;;15.50;49.20;;;;;;5022196;28;20108;-63
2024/03/30 06:33:55;;;;;;;26.92;4.35;;;15.50;49.30;;;;;;5025996;28;20033;-63
2024/03/30 06:36:20;;;;;;;31.30;5.03;;;15.50;50.10;;;;;;5026367;28;20377;-63
2024/03/30 06:38:46;;;;;;;24.27;4.82;;;15.60;50.00;;;;;;5025838;28;20478;-62
2024/03/30 06:43:55;;;;;;;35.28;4.40;;;15.60;50.60;;;;;;5022533;28;20079;-63
2024/03/30 06:46:21;;;;;;;21.08;3.67;;;15.60;50.50;;;;;;5019676;28;20374;-63
2024/03/30 06:48:47;;;;;;;28.40;3.70;;;15.70;50.60;;;;;;5021831;28;20519;-64
2024/03/30 06:51:13;;;;;;;31.60;4.00;;;15.70;50.60;;;;;;5022340;28;20056;-64
2024/03/30 06:53:38;;;;;;;26.38;4.15;;;15.70;50.70;;;;;;5020657;28;20035;-64
2024/03/30 06:56:04;;;;;;;29.35;3.63;;;15.70;50.80;;;;;;5022210;28;20022;-64
2024/03/30 06:58:30;;;;;;;32.15;4.13;;;15.80;51.00;;;;;;5021542;28;20036;-63
2024/03/30 07:00:55;;;;;;;23.05;3.22;;;15.80;51.00;;;;;;5022826;28;20034;-62
2024/03/30 07:03:21;;;;;;;32.75;3.92;;;15.90;51.10;;;;;;5019344;28;20082;-63
2024/03/30 07:05:46;;;;;;;25.52;3.92;;;15.90;51.70;;;;;;5013680;28;20273;-62
2024/03/30 07:08:18;;;;;;;26.23;3.65;;;16.00;51.40;;;;;;5023212;28;20597;-62
2024/03/30 07:10:44;;;;;;;24.83;3.17;;;16.00;51.30;;;;;;5007830;28;20128;-60
2024/03/30 07:13:10;;;;;;;27.88;3.45;;;16.10;51.10;;;;;;5003297;28;20026;-62
2024/03/30 07:15:36;;;;;;;39.42;4.15;;;16.10;50.90;;;;;;5003359;28;20075;-62
2024/03/30 07:18:03;;;;;;;32.70;3.90;;;16.20;50.60;;;;;;5005707;28;20095;-62
2024/03/30 07:20:28;;;;;;;31.98;4.35;;;16.30;50.60;;;;;;5007606;28;20038;-62
2024/03/30 07:22:54;;;;;;;33.70;4.10;;;16.40;51.10;;;;;;5006074;28;20053;-62
2024/03/30 07:25:20;;;;;;;25.38;3.78;;;16.50;51.10;;;;;;5007292;28;20038;-62
2024/03/30 07:27:45;;;;;;;28.90;4.28;;;16.50;51.30;;;;;;5006351;28;20049;-62
2024/03/30 07:30:11;;;;;;;24.17;3.45;;;16.60;51.40;;;;;;5004143;28;20488;-62
2024/03/30 07:32:37;;;;;;;25.98;3.97;;;16.60;51.30;;;;;;5003135;28;20057;-61
2024/03/30 07:35:03;;;;;;;29.80;3.70;;;16.70;51.50;;;;;;5006459;28;20578;-61
2024/03/30 07:37:28;;;;;;;28.33;4.32;;;16.70;51.30;;;;;;5006528;28;20096;-61
2024/03/30 07:39:54;;;;;;;32.58;4.50;;;16.80;51.00;;;;;;5000489;28;20440;-62
2024/03/30 07:42:19;;;;;;;29.92;3.80;;;16.80;50.60;;;;;;5005062;28;20045;-62
2024/03/30 07:44:45;;;;;;;33.75;4.25;;;16.90;50.00;;;;;;5002430;28;20061;-60
2024/03/30 07:47:11;;;;;;;37.10;4.60;;;17.00;49.90;;;;;;5014987;28;20400;-60
2024/03/30 07:49:36;;;;;;;33.55;5.18;;;17.00;49.60;;;;;;5013310;28;20496;-60
2024/03/30 07:52:02;;;;;;;35.80;4.18;;;17.10;49.50;;;;;;5008242;28;20052;-62
2024/03/30 07:54:28;;;;;;;31.95;4.30;;;17.20;49.10;;;;;;5006234;28;20029;-63
2024/03/30 07:56:58;;;;;;;35.22;4.68;;;17.30;49.10;;;;;;5003857;28;20119;-63
2024/03/30 07:59:24;;;;;;;26.52;4.03;;;17.40;49.00;;;;;;5005415;28;20046;-62
2024/03/30 08:01:50;;;;;;;35.10;5.30;;;17.40;48.90;;;;;;5003955;28;20045;-61
2024/03/30 08:04:16;;;;;;;33.75;4.20;;;17.50;48.60;;;;;;5005483;28;20034;-62
2024/03/30 08:06:47;;;;;;;35.65;4.50;;;17.60;48.30;;;;;;5006802;28;20048;-63
2024/03/30 08:09:13;;;;;;;38.20;4.65;;;17.70;48.00;;;;;;5003929;28;20038;-61
2024/03/30 08:11:39;;;;;;;36.55;5.63;;;17.80;48.00;;;;;;5002011;28;20045;-63
2024/03/30 08:14:05;;;;;;;30.95;5.75;;;17.90;48.00;;;;;;5020229;28;20054;-63
2024/03/30 08:16:32;;;;;;;42.00;5.55;;;17.90;48.00;;;;;;5025966;28;20034;-63
2024/03/30 08:18:58;;;;;;;29.33;4.30;;;18.00;48.20;;;;;;5001127;28;20524;-62
2024/03/30 08:21:24;;;;;;;29.85;4.60;;;18.10;48.00;;;;;;5009881;28;20467;-63
2024/03/30 08:23:50;;;;;;;30.27;4.03;;;18.20;47.90;;;;;;5004416;28;20035;-63
2024/03/30 08:26:16;;;;;;;30.52;4.28;;;18.30;47.80;;;;;;5001876;28;20042;-63
2024/03/30 08:28:41;;;;;;;35.00;4.53;;;18.40;47.90;;;;;;4997568;28;20088;-61
2024/03/30 08:31:07;;;;;;;25.48;3.72;;;18.50;47.80;;;;;;5001909;28;20053;-61
2024/03/30 08:33:33;;;;;;;32.90;4.25;;;18.50;47.70;;;;;;4994293;28;20045;-63
2024/03/30 08:35:58;;;;;;;34.33;4.45;;;18.60;47.70;;;;;;5003490;28;20038;-63
2024/03/30 08:38:24;;;;;;;37.25;5.03;;;18.70;47.70;;;;;;5006153;28;20496;-63
2024/03/30 08:40:49;;;;;;;41.10;4.82;;;18.80;47.40;;;;;;5009338;28;20064;-63
2024/03/30 08:43:15;;;;;;;37.50;4.07;;;18.80;47.40;;;;;;5004879;28;20053;-63
2024/03/30 08:45:42;;;;;;;28.70;3.92;;;19.00;47.10;;;;;;5006783;28;20037;-63
2024/03/30 08:48:12;;;;;;;35.25;4.53;;;19.00;46.90;;;;;;5006556;28;20421;-61
2024/03/30 08:50:38;;;;;;;32.10;4.40;;;19.10;46.60;;;;;;5012076;28;20699;-63
2024/03/30 08:53:04;;;;;;;31.95;4.68;;;19.20;46.50;;;;;;5006260;28;20066;-63
2024/03/30 08:55:29;;;;;;;32.88;4.55;;;19.30;46.50;;;;;;5010636;28;20046;-63
2024/03/30 08:57:55;;;;;;;35.08;4.40;;;19.40;46.40;;;;;;5014302;28;20065;-63
2024/03/30 09:00:22;;;;;;;29.10;4.18;;;19.50;46.20;;;;;;5004421;28;20116;-64
2024/03/30 09:02:47;;;;;;;40.63;4.80;;;19.50;45.90;;;;;;4999646;28;20042;-63
2024/03/30 09:05:13;;;;;;;32.17;3.60;;;19.60;45.70;;;;;;5009375;28;20034;-63
2024/03/30 09:07:38;;;;;;;30.67;4.32;;;19.70;45.60;;;;;;5008006;28;20125;-62
2024/03/30 09:10:04;;;;;;;29.35;4.72;;;19.80;45.60;;;;;;5007602;28;20376;-63
2024/03/30 09:12:30;;;;;;;27.10;4.10;;;19.90;45.80;;;;;;5014188;28;20034;-63
2024/03/30 09:14:55;;;;;;;32.00;4.25;;;19.90;45.60;;;;;;5006492;28;20151;-63
2024/03/30 09:17:21;;;;;;;32.65;4.47;;;20.00;45.50;;;;;;5004342;28;20030;-63
2024/03/30 09:19:47;;;;;;;37.67;4.32;;;20.10;45.60;;;;;;5005928;28;20485;-63
2024/03/30 09:22:12;;;;;;;27.15;3.55;;;20.10;45.40;;;;;;5005026;28;20173;-62
2024/03/30 09:24:38;;;;;;;35.97;4.40;;;20.20;45.10;;;;;;5008852;28;20037;-63
2024/03/30 09:27:03;;;;;;;25.73;3.58;;;20.20;45.40;;;;;;5009960;28;20509;-63
2024/03/30 09:29:29;;;;;;;29.40;3.75;;;20.30;45.40;;;;;;5007090;28;20042;-63
2024/03/30 09:31:55;;;;;;;28.98;4.07;;;20.30;45.20;;;;;;5007828;28;20030;-63
2024/03/30 09:34:20;;;;;;;32.90;4.50;;;20.40;45.20;;;;;;5005411;28;20587;-63
2024/03/30 09:36:46;;;;;;;37.20;4.30;;;20.50;45.70;;;;;;5003554;28;20068;-63
2024/03/30 09:39:11;;;;;;;29.27;4.05;;;20.50;45.80;;;;;;5008122;28;20030;-63
2024/03/30 09:41:52;;;;;;;33.90;4.80;;;20.50;45.90;;;;;;5014641;28;20033;-63
2024/03/30 09:44:18;;;;;;;39.75;4.03;;;20.60;46.30;;;;;;5010563;28;20061;-63
2024/03/30 09:46:44;;;;;;;28.85;3.85;;;20.60;45.60;;;;;;5007327;28;20060;-63
2024/03/30 09:49:10;;;;;;;21.50;2.80;;;20.70;45.10;;;;;;5005533;28;20257;-63
2024/03/30 09:51:36;;;;;;;27.65;3.88;;;20.70;45.00;;;;;;5005730;28;20040;-63
2024/03/30 09:54:02;;;;;;;27.42;3.30;;;20.70;45.80;;;;;;4999486;28;20121;-62
2024/03/30 09:56:30;;;;;;;28.08;4.00;;;20.80;45.70;;;;;;5002124;28;20092;-62
2024/03/30 09:58:58;;;;;;;29.60;3.88;;;20.80;45.70;;;;;;5009287;28;20103;-62
2024/03/30 10:01:24;;;;;;;37.75;4.25;;;20.80;45.00;;;;;;5007984;28;20084;-63
2024/03/30 10:03:50;;;;;;;31.40;4.15;;;20.80;44.90;;;;;;5011575;28;20037;-63
2024/03/30 10:06:22;;;;;;;27.02;3.80;;;20.80;44.90;;;;;;5012392;28;20042;-63
2024/03/30 10:08:50;;;;;;;32.40;4.20;;;20.90;45.70;;;;;;5005341;28;20062;-63
2024/03/30 10:11:19;;;;;;;30.15;4.78;;;20.90;45.60;;;;;;5002242;28;20076;-63
2024/03/30 10:14:13;;;;;;;27.75;3.63;;;20.90;45.00;;;;;;5007372;28;20108;-63
2024/03/30 10:16:39;;;;;;;24.88;3.50;;;21.00;44.50;;;;;;5008588;28;20103;-63
2024/03/30 10:19:06;;;;;;;22.50;3.78;;;21.00;44.60;;;;;;5019404;28;20724;-63
2024/03/30 10:21:31;;;;;;;32.65;4.35;;;21.10;44.40;;;;;;5014234;28;20679;-62
2024/03/30 10:23:58;;;;;;;26.40;3.58;;;21.10;44.40;;;;;;5009487;28;20029;-63
2024/03/30 10:26:24;;;;;;;33.88;3.80;;;21.10;44.00;;;;;;5011985;28;20065;-63
2024/03/30 10:28:50;;;;;;;32.40;4.22;;;21.20;44.00;;;;;;5005445;28;20057;-62
2024/03/30 10:31:16;;;;;;;24.00;3.70;;;21.20;43.80;;;;;;5016042;28;20177;-63
2024/03/30 10:33:42;;;;;;;29.90;3.97;;;21.20;43.80;;;;;;5016630;28;20129;-61
2024/03/30 10:36:11;;;;;;;28.33;3.75;;;21.20;43.50;;;;;;5005410;28;20121;-63
2024/03/30 10:38:39;;;;;;;27.52;4.00;;;21.20;43.50;;;;;;5003956;28;20045;-63
2024/03/30 10:41:06;;;;;;;25.77;3.22;;;21.20;43.50;;;;;;5001074;28;20113;-63
2024/03/30 10:43:34;;;;;;;31.67;4.35;;;21.20;43.60;;;;;;5011157;28;20049;-63
2024/03/30 10:46:00;;;;;;;30.85;3.83;;;21.20;43.10;;;;;;5007251;28;20042;-64
2024/03/30 10:48:26;;;;;;;31.52;3.83;;;21.20;43.10;;;;;;5009090;28;20030;-63
2024/03/30 10:50:51;;;;;;;37.08;4.63;;;21.10;42.40;;;;;;5009073;28;20044;-63
2024/03/30 10:53:19;;;;;;;27.83;3.28;;;21.10;42.50;;;;;;5007009;28;20121;-63
2024/03/30 10:55:45;;;;;;;39.95;4.40;;;21.10;42.80;;;;;;5004648;28;20508;-63
2024/03/30 10:58:11;;;;;;;26.27;3.85;;;21.10;42.70;;;;;;5007337;28;20073;-63
2024/03/30 11:00:37;;;;;;;36.50;4.47;;;21.10;42.70;;;;;;5010348;28;20026;-63
2024/03/30 11:03:04;;;;;;;33.95;4.00;;;21.20;42.80;;;;;;5009980;28;20095;-64
2024/03/30 11:05:31;;;;;;;26.83;4.03;;;21.20;42.20;;;;;;5009561;28;20939;-63
2024/03/30 11:07:57;;;;;;;30.35;3.53;;;21.10;41.90;;;;;;5010635;28;20064;-63
2024/03/30 11:10:23;;;;;;;30.00;3.95;;;21.10;42.00;;;;;;5010877;28;20049;-63
2024/03/30 11:12:49;;;;;;;22.70;3.03;;;21.10;41.60;;;;;;5010276;28;20065;-62
2024/03/30 11:15:15;;;;;;;27.73;3.22;;;21.20;42.00;;;;;;5011365;28;20034;-63
2024/03/30 11:17:48;;;;;;;23.08;3.97;;;21.20;42.10;;;;;;5011237;28;20037;-63
2024/03/30 11:20:17;;;;;;;30.25;3.40;;;21.20;41.60;;;;;;5010880;28;20499;-63
2024/03/30 11:23:05;;;;;;;32.67;4.57;;;21.20;41.70;;;;;;5009116;28;20033;-63
2024/03/30 11:25:33;;;;;;;27.63;4.00;;;21.20;41.60;;;;;;5012269;28;20034;-61
2024/03/30 11:27:59;;;;;;;25.65;3.97;;;21.20;41.70;;;;;;5011460;28;20332;-61
2024/03/30 11:30:28;;;;;;;34.63;4.20;;;21.20;41.60;;;;;;5011222;28;20038;-63
2024/03/30 11:33:08;;;;;;;35.25;4.18;;;21.20;42.00;;;;;;5010591;28;20056;-62
2024/03/30 11:35:39;;;;;;;35.67;4.10;;;21.20;41.80;;;;;;5012347;28;20053;-61
2024/03/30 11:38:06;;;;;;;31.08;3.95;;;21.20;42.80;;;;;;5009790;28;20029;-61
2024/03/30 11:40:36;;;;;;;24.38;3.00;;;21.20;42.10;;;;;;5011720;28;20046;-63
2024/03/30 11:43:44;;;;;;;25.50;3.70;;;21.30;42.10;;;;;;5011034;28;20052;-61
2024/03/30 11:46:12;;;;;;;26.13;3.25;;;21.20;41.10;;;;;;5008456;28;20041;-62
2024/03/30 11:48:39;;;;;;;29.80;4.05;;;21.30;42.10;;;;;;5012475;28;20029;-62
2024/03/30 11:51:17;;;;;;;25.08;3.05;;;21.20;42.10;;;;;;5011533;28;20030;-61
2024/03/30 11:53:44;;;;;;;27.80;3.70;;;21.20;41.90;;;;;;5011259;28;20036;-63
2024/03/30 11:56:10;;;;;;;26.10;3.25;;;21.20;42.40;;;;;;5013903;28;20034;-63
2024/03/30 11:58:39;;;;;;;26.17;3.65;;;21.20;42.10;;;;;;5016002;28;20030;-62
2024/03/30 12:01:08;;;;;;;19.42;3.17;;;21.20;42.20;;;;;;5011802;28;20541;-62
2024/03/30 12:03:34;;;;;;;24.35;2.88;;;21.20;42.40;;;;;;5007864;28;20026;-61
2024/03/30 12:06:00;;;;;;;28.80;3.38;;;21.20;42.20;;;;;;5011349;28;20033;-63
2024/03/30 12:08:28;;;;;;;22.50;3.08;;;21.20;42.10;;;;;;5013118;28;20339;-62
2024/03/30 12:11:01;;;;;;;25.00;3.28;;;21.10;42.10;;;;;;5011993;28;20129;-62
2024/03/30 12:13:33;;;;;;;24.33;2.83;;;21.10;41.80;;;;;;5013584;28;20072;-62
2024/03/30 12:15:59;;;;;;;23.23;3.30;;;21.00;41.60;;;;;;5010304;28;20049;-62
2024/03/30 12:18:25;;;;;;;18.13;2.67;;;21.00;41.70;;;;;;5009245;28;20049;-63
2024/03/30 12:20:51;;;;;;;24.13;3.20;;;21.00;41.90;;;;;;5010132;28;20041;-62
2024/03/30 12:23:22;;;;;;;29.42;3.63;;;21.00;41.70;;;;;;5004743;28;20125;-63
2024/03/30 12:25:49;;;;;;;22.13;3.08;;;21.00;41.70;;;;;;5006647;28;20038;-62
2024/03/30 12:28:15;;;;;;;26.00;3.67;;;20.90;41.30;;;;;;5005188;28;20029;-62
2024/03/30 12:30:48;;;;;;;24.90;3.50;;;20.90;41.30;;;;;;5011595;28;20528;-62
2024/03/30 12:33:15;;;;;;;32.47;3.92;;;20.90;41.00;;;;;;5008780;28;20044;-62
2024/03/30 12:35:42;;;;;;;28.58;4.93;;;20.90;40.90;;;;;;5019001;28;20450;-61
2024/03/30 12:38:26;;;;;;;21.85;4.93;;;20.90;40.60;;;;;;5010014;28;20073;-62